sensor_id;sensor_type;location;lat;lon;timestamp;P1;durP1;ratioP1;P2;durP2;ratioP2
29452;SDS011;16424;50.956;5.320;2022-10-16T00:01:45;2.75;;;0.90;;
29452;SDS011;16424;50.956;5.320;2022-10-16T00:04:11;3.60;;;0.60;;
29452;SDS011;16424;50.956;5.320;2022-10-16T00:06:37;2.17;;;1.00;;
29452;SDS011;16424;50.956;5.320;2022-10-16T00:09:03;3.80;;;0.88;;
29452;SDS011;16424;50.956;5.320;2022-10-16T00:11:29;7.00;;;1.40;;
29452;SDS011;16424;50.956;5.320;2022-10-16T00:13:59;2.35;;;0.63;;
29452;SDS011;16424;50.956;5.320;2022-10-16T00:16:26;0.60;;;0.60;;
29452;SDS011;16424;50.956;5.320;2022-10-16T00:18:52;2.70;;;0.82;;
29452;SDS011;16424;50.956;5.320;2022-10-16T00:21:19;4.00;;;0.93;;
29452;SDS011;16424;50.956;5.320;2022-10-16T00:23:46;0.47;;;0.47;;
29452;SDS011;16424;50.956;5.320;2022-10-16T00:26:16;3.42;;;0.82;;
29452;SDS011;16424;50.956;5.320;2022-10-16T00:28:44;1.08;;;0.65;;
29452;SDS011;16424;50.956;5.320;2022-10-16T00:31:11;1.88;;;0.82;;
29452;SDS011;16424;50.956;5.320;2022-10-16T00:33:38;2.00;;;0.70;;
29452;SDS011;16424;50.956;5.320;2022-10-16T00:36:05;4.82;;;0.75;;
29452;SDS011;16424;50.956;5.320;2022-10-16T00:38:32;5.82;;;1.45;;
29452;SDS011;16424;50.956;5.320;2022-10-16T00:40:58;3.58;;;0.90;;
29452;SDS011;16424;50.956;5.320;2022-10-16T00:49:03;0.70;;;0.60;;
29452;SDS011;16424;50.956;5.320;2022-10-16T00:51:50;2.58;;;0.63;;
29452;SDS011;16424;50.956;5.320;2022-10-16T00:54:25;1.63;;;0.77;;
29452;SDS011;16424;50.956;5.320;2022-10-16T00:56:53;2.70;;;0.80;;
29452;SDS011;16424;50.956;5.320;2022-10-16T00:59:30;2.22;;;0.63;;
29452;SDS011;16424;50.956;5.320;2022-10-16T01:02:01;2.47;;;0.77;;
29452;SDS011;16424;50.956;5.320;2022-10-16T01:04:28;4.10;;;0.75;;
29452;SDS011;16424;50.956;5.320;2022-10-16T01:12:41;0.75;;;0.60;;
29452;SDS011;16424;50.956;5.320;2022-10-16T01:18:30;3.00;;;0.60;;
29452;SDS011;16424;50.956;5.320;2022-10-16T01:21:01;1.52;;;1.33;;
29452;SDS011;16424;50.956;5.320;2022-10-16T01:26:16;2.75;;;0.80;;
29452;SDS011;16424;50.956;5.320;2022-10-16T01:28:51;0.73;;;0.65;;
29452;SDS011;16424;50.956;5.320;2022-10-16T01:31:25;1.27;;;0.77;;
29452;SDS011;16424;50.956;5.320;2022-10-16T01:36:42;3.30;;;1.00;;
29452;SDS011;16424;50.956;5.320;2022-10-16T01:39:15;3.00;;;0.70;;
29452;SDS011;16424;50.956;5.320;2022-10-16T01:41:48;4.65;;;1.08;;
29452;SDS011;16424;50.956;5.320;2022-10-16T01:44:20;3.72;;;1.02;;
29452;SDS011;16424;50.956;5.320;2022-10-16T01:46:50;0.95;;;0.60;;
29452;SDS011;16424;50.956;5.320;2022-10-16T01:49:18;0.93;;;0.65;;
29452;SDS011;16424;50.956;5.320;2022-10-16T01:51:47;1.70;;;0.50;;
29452;SDS011;16424;50.956;5.320;2022-10-16T01:54:17;1.63;;;0.70;;
29452;SDS011;16424;50.956;5.320;2022-10-16T01:56:45;4.13;;;0.70;;
29452;SDS011;16424;50.956;5.320;2022-10-16T01:59:13;1.70;;;0.93;;
29452;SDS011;16424;50.956;5.320;2022-10-16T02:01:44;3.05;;;1.42;;
29452;SDS011;16424;50.956;5.320;2022-10-16T02:04:19;0.73;;;0.63;;
29452;SDS011;16424;50.956;5.320;2022-10-16T02:07:15;7.13;;;0.90;;
29452;SDS011;16424;50.956;5.320;2022-10-16T02:09:41;2.15;;;0.50;;
29452;SDS011;16424;50.956;5.320;2022-10-16T02:12:09;1.85;;;0.70;;
29452;SDS011;16424;50.956;5.320;2022-10-16T02:14:43;2.22;;;0.77;;
29452;SDS011;16424;50.956;5.320;2022-10-16T02:17:12;5.97;;;0.90;;
29452;SDS011;16424;50.956;5.320;2022-10-16T02:19:42;1.23;;;0.85;;
29452;SDS011;16424;50.956;5.320;2022-10-16T02:22:10;2.15;;;1.70;;
29452;SDS011;16424;50.956;5.320;2022-10-16T02:27:12;2.65;;;0.90;;
29452;SDS011;16424;50.956;5.320;2022-10-16T02:29:49;0.70;;;0.70;;
29452;SDS011;16424;50.956;5.320;2022-10-16T02:32:20;1.73;;;0.60;;
29452;SDS011;16424;50.956;5.320;2022-10-16T02:34:48;3.10;;;0.63;;
29452;SDS011;16424;50.956;5.320;2022-10-16T02:37:16;1.50;;;0.75;;
29452;SDS011;16424;50.956;5.320;2022-10-16T02:39:42;2.28;;;1.00;;
29452;SDS011;16424;50.956;5.320;2022-10-16T02:42:11;2.25;;;0.65;;
29452;SDS011;16424;50.956;5.320;2022-10-16T02:44:38;2.40;;;0.82;;
29452;SDS011;16424;50.956;5.320;2022-10-16T02:47:04;3.22;;;0.88;;
29452;SDS011;16424;50.956;5.320;2022-10-16T02:49:29;1.23;;;0.80;;
29452;SDS011;16424;50.956;5.320;2022-10-16T02:51:55;2.60;;;0.90;;
29452;SDS011;16424;50.956;5.320;2022-10-16T02:54:20;4.93;;;0.95;;
29452;SDS011;16424;50.956;5.320;2022-10-16T02:56:46;1.15;;;0.70;;
29452;SDS011;16424;50.956;5.320;2022-10-16T02:59:12;1.88;;;0.70;;
29452;SDS011;16424;50.956;5.320;2022-10-16T03:01:37;1.70;;;0.70;;
29452;SDS011;16424;50.956;5.320;2022-10-16T03:04:03;0.98;;;0.55;;
29452;SDS011;16424;50.956;5.320;2022-10-16T03:06:29;3.78;;;0.77;;
29452;SDS011;16424;50.956;5.320;2022-10-16T03:08:54;1.65;;;0.70;;
29452;SDS011;16424;50.956;5.320;2022-10-16T03:11:20;2.75;;;0.93;;
29452;SDS011;16424;50.956;5.320;2022-10-16T03:13:46;7.30;;;1.05;;
29452;SDS011;16424;50.956;5.320;2022-10-16T03:16:11;3.13;;;0.80;;
29452;SDS011;16424;50.956;5.320;2022-10-16T03:18:37;1.17;;;0.75;;
29452;SDS011;16424;50.956;5.320;2022-10-16T03:21:03;3.13;;;0.60;;
29452;SDS011;16424;50.956;5.320;2022-10-16T03:23:28;4.20;;;0.80;;
29452;SDS011;16424;50.956;5.320;2022-10-16T03:25:54;1.10;;;1.00;;
29452;SDS011;16424;50.956;5.320;2022-10-16T03:28:20;2.33;;;0.68;;
29452;SDS011;16424;50.956;5.320;2022-10-16T03:30:45;1.00;;;0.90;;
29452;SDS011;16424;50.956;5.320;2022-10-16T03:33:11;2.75;;;0.80;;
29452;SDS011;16424;50.956;5.320;2022-10-16T03:35:37;4.95;;;0.90;;
29452;SDS011;16424;50.956;5.320;2022-10-16T03:38:02;1.33;;;0.80;;
29452;SDS011;16424;50.956;5.320;2022-10-16T03:40:28;1.73;;;1.00;;
29452;SDS011;16424;50.956;5.320;2022-10-16T03:42:54;2.92;;;1.10;;
29452;SDS011;16424;50.956;5.320;2022-10-16T03:45:22;2.47;;;0.93;;
29452;SDS011;16424;50.956;5.320;2022-10-16T03:47:48;1.10;;;0.85;;
29452;SDS011;16424;50.956;5.320;2022-10-16T03:50:13;1.38;;;0.70;;
29452;SDS011;16424;50.956;5.320;2022-10-16T03:52:39;0.70;;;0.70;;
29452;SDS011;16424;50.956;5.320;2022-10-16T03:55:05;6.22;;;0.85;;
29452;SDS011;16424;50.956;5.320;2022-10-16T03:57:31;0.80;;;0.60;;
29452;SDS011;16424;50.956;5.320;2022-10-16T03:59:56;6.32;;;1.30;;
29452;SDS011;16424;50.956;5.320;2022-10-16T04:02:22;1.20;;;1.10;;
29452;SDS011;16424;50.956;5.320;2022-10-16T04:04:48;2.90;;;0.98;;
29452;SDS011;16424;50.956;5.320;2022-10-16T04:07:13;3.70;;;1.00;;
29452;SDS011;16424;50.956;5.320;2022-10-16T04:09:39;3.45;;;1.00;;
29452;SDS011;16424;50.956;5.320;2022-10-16T04:12:04;14.23;;;1.85;;
29452;SDS011;16424;50.956;5.320;2022-10-16T04:14:30;2.30;;;0.93;;
29452;SDS011;16424;50.956;5.320;2022-10-16T04:16:56;2.92;;;1.05;;
29452;SDS011;16424;50.956;5.320;2022-10-16T04:19:21;2.33;;;1.00;;
29452;SDS011;16424;50.956;5.320;2022-10-16T04:21:47;2.08;;;1.17;;
29452;SDS011;16424;50.956;5.320;2022-10-16T04:24:13;3.60;;;1.05;;
29452;SDS011;16424;50.956;5.320;2022-10-16T04:26:38;2.35;;;1.65;;
29452;SDS011;16424;50.956;5.320;2022-10-16T04:29:04;4.57;;;0.80;;
29452;SDS011;16424;50.956;5.320;2022-10-16T04:31:29;3.13;;;1.58;;
29452;SDS011;16424;50.956;5.320;2022-10-16T04:33:55;4.05;;;0.98;;
29452;SDS011;16424;50.956;5.320;2022-10-16T04:36:21;6.05;;;1.20;;
29452;SDS011;16424;50.956;5.320;2022-10-16T04:38:46;8.02;;;1.50;;
29452;SDS011;16424;50.956;5.320;2022-10-16T04:41:12;2.35;;;1.42;;
29452;SDS011;16424;50.956;5.320;2022-10-16T04:43:38;4.57;;;1.20;;
29452;SDS011;16424;50.956;5.320;2022-10-16T04:46:03;4.72;;;1.13;;
29452;SDS011;16424;50.956;5.320;2022-10-16T04:48:30;1.23;;;1.08;;
29452;SDS011;16424;50.956;5.320;2022-10-16T04:50:56;2.72;;;1.20;;
29452;SDS011;16424;50.956;5.320;2022-10-16T04:53:22;2.92;;;1.00;;
29452;SDS011;16424;50.956;5.320;2022-10-16T04:55:48;1.92;;;1.25;;
29452;SDS011;16424;50.956;5.320;2022-10-16T04:58:13;3.70;;;1.15;;
29452;SDS011;16424;50.956;5.320;2022-10-16T05:00:39;1.40;;;1.10;;
29452;SDS011;16424;50.956;5.320;2022-10-16T05:03:05;2.58;;;1.65;;
29452;SDS011;16424;50.956;5.320;2022-10-16T05:05:33;2.10;;;1.40;;
29452;SDS011;16424;50.956;5.320;2022-10-16T05:07:59;3.15;;;1.38;;
29452;SDS011;16424;50.956;5.320;2022-10-16T05:10:25;3.75;;;1.92;;
29452;SDS011;16424;50.956;5.320;2022-10-16T05:12:51;2.97;;;1.65;;
29452;SDS011;16424;50.956;5.320;2022-10-16T05:15:17;4.35;;;1.60;;
29452;SDS011;16424;50.956;5.320;2022-10-16T05:17:43;3.15;;;1.40;;
29452;SDS011;16424;50.956;5.320;2022-10-16T05:20:09;5.15;;;1.30;;
29452;SDS011;16424;50.956;5.320;2022-10-16T05:22:35;3.33;;;1.40;;
29452;SDS011;16424;50.956;5.320;2022-10-16T05:25:00;2.58;;;1.50;;
29452;SDS011;16424;50.956;5.320;2022-10-16T05:27:26;3.05;;;1.85;;
29452;SDS011;16424;50.956;5.320;2022-10-16T05:29:52;4.03;;;1.42;;
29452;SDS011;16424;50.956;5.320;2022-10-16T05:32:17;2.50;;;1.67;;
29452;SDS011;16424;50.956;5.320;2022-10-16T05:34:44;2.67;;;1.30;;
29452;SDS011;16424;50.956;5.320;2022-10-16T05:37:10;3.17;;;1.73;;
29452;SDS011;16424;50.956;5.320;2022-10-16T05:39:37;2.88;;;2.00;;
29452;SDS011;16424;50.956;5.320;2022-10-16T05:42:05;2.30;;;1.65;;
29452;SDS011;16424;50.956;5.320;2022-10-16T05:44:31;3.85;;;1.48;;
29452;SDS011;16424;50.956;5.320;2022-10-16T05:46:57;4.78;;;2.22;;
29452;SDS011;16424;50.956;5.320;2022-10-16T05:49:22;4.35;;;1.83;;
29452;SDS011;16424;50.956;5.320;2022-10-16T05:51:48;2.58;;;1.30;;
29452;SDS011;16424;50.956;5.320;2022-10-16T05:54:14;2.72;;;1.70;;
29452;SDS011;16424;50.956;5.320;2022-10-16T05:56:40;2.20;;;1.50;;
29452;SDS011;16424;50.956;5.320;2022-10-16T05:59:05;2.88;;;1.77;;
29452;SDS011;16424;50.956;5.320;2022-10-16T06:01:31;3.97;;;2.28;;
29452;SDS011;16424;50.956;5.320;2022-10-16T06:03:57;9.43;;;2.47;;
29452;SDS011;16424;50.956;5.320;2022-10-16T06:06:24;3.20;;;2.15;;
29452;SDS011;16424;50.956;5.320;2022-10-16T06:08:51;4.22;;;1.85;;
29452;SDS011;16424;50.956;5.320;2022-10-16T06:11:22;2.20;;;1.65;;
29452;SDS011;16424;50.956;5.320;2022-10-16T06:13:54;7.57;;;1.90;;
29452;SDS011;16424;50.956;5.320;2022-10-16T06:16:21;5.28;;;2.42;;
29452;SDS011;16424;50.956;5.320;2022-10-16T06:18:48;6.15;;;1.80;;
29452;SDS011;16424;50.956;5.320;2022-10-16T06:21:17;4.13;;;1.90;;
29452;SDS011;16424;50.956;5.320;2022-10-16T06:23:48;5.93;;;2.13;;
29452;SDS011;16424;50.956;5.320;2022-10-16T06:26:14;3.20;;;2.00;;
29452;SDS011;16424;50.956;5.320;2022-10-16T06:28:42;3.13;;;1.65;;
29452;SDS011;16424;50.956;5.320;2022-10-16T06:31:09;4.88;;;1.95;;
29452;SDS011;16424;50.956;5.320;2022-10-16T06:33:36;3.35;;;1.67;;
29452;SDS011;16424;50.956;5.320;2022-10-16T06:36:06;4.07;;;1.80;;
29452;SDS011;16424;50.956;5.320;2022-10-16T06:38:34;4.93;;;1.67;;
29452;SDS011;16424;50.956;5.320;2022-10-16T06:41:00;4.80;;;1.95;;
29452;SDS011;16424;50.956;5.320;2022-10-16T06:43:28;10.85;;;3.00;;
29452;SDS011;16424;50.956;5.320;2022-10-16T06:45:57;3.90;;;1.73;;
29452;SDS011;16424;50.956;5.320;2022-10-16T06:48:23;6.07;;;1.70;;
29452;SDS011;16424;50.956;5.320;2022-10-16T06:51:00;2.88;;;2.10;;
29452;SDS011;16424;50.956;5.320;2022-10-16T06:53:29;7.68;;;2.15;;
29452;SDS011;16424;50.956;5.320;2022-10-16T06:55:57;2.97;;;1.90;;
29452;SDS011;16424;50.956;5.320;2022-10-16T06:58:23;7.53;;;1.75;;
29452;SDS011;16424;50.956;5.320;2022-10-16T07:00:54;2.10;;;1.35;;
29452;SDS011;16424;50.956;5.320;2022-10-16T07:03:21;7.05;;;1.30;;
29452;SDS011;16424;50.956;5.320;2022-10-16T07:05:47;4.68;;;1.27;;
29452;SDS011;16424;50.956;5.320;2022-10-16T07:08:13;5.45;;;1.70;;
29452;SDS011;16424;50.956;5.320;2022-10-16T07:10:38;0.93;;;0.80;;
29452;SDS011;16424;50.956;5.320;2022-10-16T07:13:04;3.72;;;1.30;;
29452;SDS011;16424;50.956;5.320;2022-10-16T07:15:32;1.95;;;0.95;;
29452;SDS011;16424;50.956;5.320;2022-10-16T07:17:58;2.88;;;0.75;;
29452;SDS011;16424;50.956;5.320;2022-10-16T07:20:24;3.13;;;1.10;;
29452;SDS011;16424;50.956;5.320;2022-10-16T07:22:49;2.65;;;0.55;;
29452;SDS011;16424;50.956;5.320;2022-10-16T07:25:15;2.40;;;1.02;;
29452;SDS011;16424;50.956;5.320;2022-10-16T07:27:41;3.15;;;1.00;;
29452;SDS011;16424;50.956;5.320;2022-10-16T07:30:06;5.57;;;1.05;;
29452;SDS011;16424;50.956;5.320;2022-10-16T07:32:33;4.03;;;0.80;;
29452;SDS011;16424;50.956;5.320;2022-10-16T07:34:58;2.33;;;1.00;;
29452;SDS011;16424;50.956;5.320;2022-10-16T07:37:24;1.98;;;0.80;;
29452;SDS011;16424;50.956;5.320;2022-10-16T07:39:49;2.20;;;0.70;;
29452;SDS011;16424;50.956;5.320;2022-10-16T07:42:15;2.78;;;1.05;;
29452;SDS011;16424;50.956;5.320;2022-10-16T07:44:41;1.52;;;0.70;;
29452;SDS011;16424;50.956;5.320;2022-10-16T07:47:06;2.92;;;0.60;;
29452;SDS011;16424;50.956;5.320;2022-10-16T07:49:32;3.83;;;0.70;;
29452;SDS011;16424;50.956;5.320;2022-10-16T07:51:58;4.82;;;1.08;;
29452;SDS011;16424;50.956;5.320;2022-10-16T07:54:23;3.17;;;1.10;;
29452;SDS011;16424;50.956;5.320;2022-10-16T07:56:49;4.00;;;0.75;;
29452;SDS011;16424;50.956;5.320;2022-10-16T07:59:15;1.73;;;0.70;;
29452;SDS011;16424;50.956;5.320;2022-10-16T08:01:40;3.22;;;0.98;;
29452;SDS011;16424;50.956;5.320;2022-10-16T08:04:09;2.63;;;0.70;;
29452;SDS011;16424;50.956;5.320;2022-10-16T08:06:39;2.40;;;1.00;;
29452;SDS011;16424;50.956;5.320;2022-10-16T08:09:05;2.17;;;0.85;;
29452;SDS011;16424;50.956;5.320;2022-10-16T08:11:32;3.70;;;0.90;;
29452;SDS011;16424;50.956;5.320;2022-10-16T08:13:58;6.65;;;1.02;;
29452;SDS011;16424;50.956;5.320;2022-10-16T08:16:24;3.45;;;0.80;;
29452;SDS011;16424;50.956;5.320;2022-10-16T08:18:50;2.95;;;0.75;;
29452;SDS011;16424;50.956;5.320;2022-10-16T08:21:17;3.47;;;0.77;;
29452;SDS011;16424;50.956;5.320;2022-10-16T08:23:44;2.03;;;0.60;;
29452;SDS011;16424;50.956;5.320;2022-10-16T08:26:10;2.85;;;0.90;;
29452;SDS011;16424;50.956;5.320;2022-10-16T08:28:36;2.22;;;0.75;;
29452;SDS011;16424;50.956;5.320;2022-10-16T08:31:06;2.13;;;0.70;;
29452;SDS011;16424;50.956;5.320;2022-10-16T08:33:37;1.30;;;0.80;;
29452;SDS011;16424;50.956;5.320;2022-10-16T08:36:04;2.25;;;0.80;;
29452;SDS011;16424;50.956;5.320;2022-10-16T08:38:30;2.78;;;0.70;;
29452;SDS011;16424;50.956;5.320;2022-10-16T08:46:46;1.35;;;0.70;;
29452;SDS011;16424;50.956;5.320;2022-10-16T08:49:14;2.47;;;0.55;;
29452;SDS011;16424;50.956;5.320;2022-10-16T08:51:40;6.97;;;1.38;;
29452;SDS011;16424;50.956;5.320;2022-10-16T08:54:18;2.65;;;0.60;;
29452;SDS011;16424;50.956;5.320;2022-10-16T08:57:21;2.10;;;0.70;;
29452;SDS011;16424;50.956;5.320;2022-10-16T08:59:48;4.40;;;1.00;;
29452;SDS011;16424;50.956;5.320;2022-10-16T09:02:23;3.10;;;0.82;;
29452;SDS011;16424;50.956;5.320;2022-10-16T09:05:19;3.25;;;0.65;;
29452;SDS011;16424;50.956;5.320;2022-10-16T09:13:14;2.42;;;0.90;;
29452;SDS011;16424;50.956;5.320;2022-10-16T09:18:38;3.03;;;0.90;;
29452;SDS011;16424;50.956;5.320;2022-10-16T09:21:18;4.93;;;1.00;;
29452;SDS011;16424;50.956;5.320;2022-10-16T09:23:59;2.50;;;0.80;;
29452;SDS011;16424;50.956;5.320;2022-10-16T09:26:34;3.70;;;0.90;;
29452;SDS011;16424;50.956;5.320;2022-10-16T09:29:00;3.15;;;0.77;;
29452;SDS011;16424;50.956;5.320;2022-10-16T09:31:25;3.30;;;1.08;;
29452;SDS011;16424;50.956;5.320;2022-10-16T09:33:53;8.77;;;1.33;;
29452;SDS011;16424;50.956;5.320;2022-10-16T09:36:23;4.13;;;0.90;;
29452;SDS011;16424;50.956;5.320;2022-10-16T09:38:50;5.22;;;1.10;;
29452;SDS011;16424;50.956;5.320;2022-10-16T09:41:30;5.95;;;0.90;;
29452;SDS011;16424;50.956;5.320;2022-10-16T09:44:00;2.05;;;0.80;;
29452;SDS011;16424;50.956;5.320;2022-10-16T09:49:00;3.03;;;0.85;;
29452;SDS011;16424;50.956;5.320;2022-10-16T09:51:29;6.53;;;1.15;;
29452;SDS011;16424;50.956;5.320;2022-10-16T09:56:35;3.05;;;0.90;;
29452;SDS011;16424;50.956;5.320;2022-10-16T09:59:17;4.03;;;1.20;;
29452;SDS011;16424;50.956;5.320;2022-10-16T10:01:48;4.88;;;1.00;;
29452;SDS011;16424;50.956;5.320;2022-10-16T10:04:14;4.22;;;1.20;;
29452;SDS011;16424;50.956;5.320;2022-10-16T10:06:43;3.63;;;0.82;;
29452;SDS011;16424;50.956;5.320;2022-10-16T10:11:48;3.95;;;1.15;;
29452;SDS011;16424;50.956;5.320;2022-10-16T10:14:30;3.88;;;1.17;;
29452;SDS011;16424;50.956;5.320;2022-10-16T10:17:02;4.85;;;1.30;;
29452;SDS011;16424;50.956;5.320;2022-10-16T10:19:40;6.35;;;1.58;;
29452;SDS011;16424;50.956;5.320;2022-10-16T10:25:14;3.72;;;1.17;;
29452;SDS011;16424;50.956;5.320;2022-10-16T10:31:10;11.48;;;2.33;;
29452;SDS011;16424;50.956;5.320;2022-10-16T10:33:38;8.52;;;1.20;;
29452;SDS011;16424;50.956;5.320;2022-10-16T10:39:18;3.10;;;0.80;;
29452;SDS011;16424;50.956;5.320;2022-10-16T10:44:26;7.03;;;1.35;;
29452;SDS011;16424;50.956;5.320;2022-10-16T10:52:23;3.45;;;0.93;;
29452;SDS011;16424;50.956;5.320;2022-10-16T10:57:30;2.67;;;0.80;;
29452;SDS011;16424;50.956;5.320;2022-10-16T11:02:55;7.00;;;0.88;;
29452;SDS011;16424;50.956;5.320;2022-10-16T11:05:46;4.68;;;0.90;;
29452;SDS011;16424;50.956;5.320;2022-10-16T11:08:17;3.15;;;1.00;;
29452;SDS011;16424;50.956;5.320;2022-10-16T11:10:54;5.05;;;1.08;;
29452;SDS011;16424;50.956;5.320;2022-10-16T11:13:32;6.05;;;0.70;;
29452;SDS011;16424;50.956;5.320;2022-10-16T11:16:39;3.95;;;0.77;;
29452;SDS011;16424;50.956;5.320;2022-10-16T11:19:15;6.47;;;1.02;;
29452;SDS011;16424;50.956;5.320;2022-10-16T11:24:59;1.38;;;0.60;;
29452;SDS011;16424;50.956;5.320;2022-10-16T11:27:40;3.47;;;1.15;;
29452;SDS011;16424;50.956;5.320;2022-10-16T11:30:23;2.80;;;0.68;;
29452;SDS011;16424;50.956;5.320;2022-10-16T11:33:12;2.20;;;0.75;;
29452;SDS011;16424;50.956;5.320;2022-10-16T11:41:35;4.88;;;0.90;;
29452;SDS011;16424;50.956;5.320;2022-10-16T11:50:06;7.70;;;1.00;;
29452;SDS011;16424;50.956;5.320;2022-10-16T11:55:41;1.95;;;0.68;;
29452;SDS011;16424;50.956;5.320;2022-10-16T12:01:14;4.90;;;0.95;;
29452;SDS011;16424;50.956;5.320;2022-10-16T12:04:05;2.13;;;0.60;;
29452;SDS011;16424;50.956;5.320;2022-10-16T12:07:01;4.60;;;0.90;;
29452;SDS011;16424;50.956;5.320;2022-10-16T12:09:34;3.25;;;1.00;;
29452;SDS011;16424;50.956;5.320;2022-10-16T12:12:03;2.78;;;0.73;;
29452;SDS011;16424;50.956;5.320;2022-10-16T12:19:45;2.28;;;0.52;;
29452;SDS011;16424;50.956;5.320;2022-10-16T12:22:37;4.65;;;0.60;;
29452;SDS011;16424;50.956;5.320;2022-10-16T12:30:57;2.10;;;0.50;;
29452;SDS011;16424;50.956;5.320;2022-10-16T12:35:51;2.08;;;0.70;;
29452;SDS011;16424;50.956;5.320;2022-10-16T12:38:24;2.25;;;0.63;;
29452;SDS011;16424;50.956;5.320;2022-10-16T12:41:02;5.17;;;1.10;;
29452;SDS011;16424;50.956;5.320;2022-10-16T12:48:35;1.77;;;0.73;;
29452;SDS011;16424;50.956;5.320;2022-10-16T12:54:02;1.60;;;0.40;;
29452;SDS011;16424;50.956;5.320;2022-10-16T13:07:55;2.80;;;0.73;;
29452;SDS011;16424;50.956;5.320;2022-10-16T13:10:53;4.50;;;0.60;;
29452;SDS011;16424;50.956;5.320;2022-10-16T13:13:50;3.95;;;0.60;;
29452;SDS011;16424;50.956;5.320;2022-10-16T13:27:10;2.13;;;0.60;;
29452;SDS011;16424;50.956;5.320;2022-10-16T13:32:44;2.97;;;0.80;;
29452;SDS011;16424;50.956;5.320;2022-10-16T13:35:23;1.60;;;0.70;;
29452;SDS011;16424;50.956;5.320;2022-10-16T13:40:55;1.55;;;0.57;;
29452;SDS011;16424;50.956;5.320;2022-10-16T13:46:05;1.60;;;0.47;;
29452;SDS011;16424;50.956;5.320;2022-10-16T13:48:36;1.65;;;0.50;;
29452;SDS011;16424;50.956;5.320;2022-10-16T13:53:40;2.22;;;0.75;;
29452;SDS011;16424;50.956;5.320;2022-10-16T13:56:09;2.47;;;0.80;;
29452;SDS011;16424;50.956;5.320;2022-10-16T13:58:39;2.08;;;0.50;;
29452;SDS011;16424;50.956;5.320;2022-10-16T14:01:27;0.85;;;0.43;;
29452;SDS011;16424;50.956;5.320;2022-10-16T14:04:05;1.85;;;0.43;;
29452;SDS011;16424;50.956;5.320;2022-10-16T14:06:33;1.92;;;0.85;;
29452;SDS011;16424;50.956;5.320;2022-10-16T14:11:46;1.30;;;0.65;;
29452;SDS011;16424;50.956;5.320;2022-10-16T14:14:16;3.00;;;0.55;;
29452;SDS011;16424;50.956;5.320;2022-10-16T14:16:43;0.82;;;0.35;;
29452;SDS011;16424;50.956;5.320;2022-10-16T14:19:17;1.13;;;0.50;;
29452;SDS011;16424;50.956;5.320;2022-10-16T14:21:51;2.67;;;0.55;;
29452;SDS011;16424;50.956;5.320;2022-10-16T14:26:56;4.15;;;0.70;;
29452;SDS011;16424;50.956;5.320;2022-10-16T14:29:21;3.55;;;0.70;;
29452;SDS011;16424;50.956;5.320;2022-10-16T14:31:57;4.82;;;1.50;;
29452;SDS011;16424;50.956;5.320;2022-10-16T14:34:34;18.02;;;4.60;;
29452;SDS011;16424;50.956;5.320;2022-10-16T14:39:50;2.80;;;1.20;;
29452;SDS011;16424;50.956;5.320;2022-10-16T14:42:17;7.97;;;2.20;;
29452;SDS011;16424;50.956;5.320;2022-10-16T14:44:45;5.40;;;2.08;;
29452;SDS011;16424;50.956;5.320;2022-10-16T14:47:16;6.65;;;1.98;;
29452;SDS011;16424;50.956;5.320;2022-10-16T14:49:47;7.72;;;2.38;;
29452;SDS011;16424;50.956;5.320;2022-10-16T14:52:13;4.57;;;1.90;;
29452;SDS011;16424;50.956;5.320;2022-10-16T14:54:39;2.75;;;0.98;;
29452;SDS011;16424;50.956;5.320;2022-10-16T14:57:05;4.13;;;1.40;;
29452;SDS011;16424;50.956;5.320;2022-10-16T14:59:40;3.28;;;1.40;;
29452;SDS011;16424;50.956;5.320;2022-10-16T15:02:43;3.78;;;1.17;;
29452;SDS011;16424;50.956;5.320;2022-10-16T15:05:10;3.55;;;0.90;;
29452;SDS011;16424;50.956;5.320;2022-10-16T15:07:41;2.90;;;0.88;;
29452;SDS011;16424;50.956;5.320;2022-10-16T15:10:07;4.63;;;0.98;;
29452;SDS011;16424;50.956;5.320;2022-10-16T15:12:34;2.55;;;0.70;;
29452;SDS011;16424;50.956;5.320;2022-10-16T15:14:59;2.50;;;1.48;;
29452;SDS011;16424;50.956;5.320;2022-10-16T15:17:25;4.93;;;0.85;;
29452;SDS011;16424;50.956;5.320;2022-10-16T15:19:51;4.57;;;1.10;;
29452;SDS011;16424;50.956;5.320;2022-10-16T15:22:16;4.97;;;0.80;;
29452;SDS011;16424;50.956;5.320;2022-10-16T15:24:42;4.50;;;1.52;;
29452;SDS011;16424;50.956;5.320;2022-10-16T15:27:08;3.63;;;1.02;;
29452;SDS011;16424;50.956;5.320;2022-10-16T15:29:34;5.80;;;1.20;;
29452;SDS011;16424;50.956;5.320;2022-10-16T15:31:59;4.53;;;1.02;;
29452;SDS011;16424;50.956;5.320;2022-10-16T15:34:25;2.05;;;1.02;;
29452;SDS011;16424;50.956;5.320;2022-10-16T15:36:51;3.67;;;1.02;;
29452;SDS011;16424;50.956;5.320;2022-10-16T15:39:17;4.30;;;1.00;;
29452;SDS011;16424;50.956;5.320;2022-10-16T15:41:45;4.43;;;1.10;;
29452;SDS011;16424;50.956;5.320;2022-10-16T15:44:16;1.88;;;0.90;;
29452;SDS011;16424;50.956;5.320;2022-10-16T15:46:42;2.85;;;1.23;;
29452;SDS011;16424;50.956;5.320;2022-10-16T15:49:08;4.03;;;1.00;;
29452;SDS011;16424;50.956;5.320;2022-10-16T15:51:37;5.03;;;0.95;;
29452;SDS011;16424;50.956;5.320;2022-10-16T15:54:04;2.95;;;1.33;;
29452;SDS011;16424;50.956;5.320;2022-10-16T15:56:30;2.60;;;1.05;;
29452;SDS011;16424;50.956;5.320;2022-10-16T15:58:58;3.10;;;1.50;;
29452;SDS011;16424;50.956;5.320;2022-10-16T16:01:24;6.53;;;1.95;;
29452;SDS011;16424;50.956;5.320;2022-10-16T16:03:53;5.15;;;2.88;;
29452;SDS011;16424;50.956;5.320;2022-10-16T16:06:19;5.50;;;2.42;;
29452;SDS011;16424;50.956;5.320;2022-10-16T16:08:45;5.43;;;3.40;;
29452;SDS011;16424;50.956;5.320;2022-10-16T16:11:15;6.30;;;2.28;;
29452;SDS011;16424;50.956;5.320;2022-10-16T16:13:41;15.43;;;3.90;;
29452;SDS011;16424;50.956;5.320;2022-10-16T16:16:10;5.80;;;2.80;;
29452;SDS011;16424;50.956;5.320;2022-10-16T16:18:38;6.05;;;3.20;;
29452;SDS011;16424;50.956;5.320;2022-10-16T16:21:04;6.90;;;2.95;;
29452;SDS011;16424;50.956;5.320;2022-10-16T16:23:30;7.70;;;3.63;;
29452;SDS011;16424;50.956;5.320;2022-10-16T16:26:04;12.82;;;3.42;;
29452;SDS011;16424;50.956;5.320;2022-10-16T16:28:31;6.70;;;2.75;;
29452;SDS011;16424;50.956;5.320;2022-10-16T16:30:56;4.22;;;3.10;;
29452;SDS011;16424;50.956;5.320;2022-10-16T16:33:22;6.45;;;3.78;;
29452;SDS011;16424;50.956;5.320;2022-10-16T16:35:48;7.57;;;3.97;;
29452;SDS011;16424;50.956;5.320;2022-10-16T16:38:14;7.63;;;3.78;;
29452;SDS011;16424;50.956;5.320;2022-10-16T16:40:39;6.90;;;3.40;;
29452;SDS011;16424;50.956;5.320;2022-10-16T16:43:05;9.38;;;3.28;;
29452;SDS011;16424;50.956;5.320;2022-10-16T16:45:34;8.77;;;3.95;;
29452;SDS011;16424;50.956;5.320;2022-10-16T16:48:00;6.47;;;3.65;;
29452;SDS011;16424;50.956;5.320;2022-10-16T16:50:26;8.90;;;4.18;;
29452;SDS011;16424;50.956;5.320;2022-10-16T16:52:52;10.85;;;3.60;;
29452;SDS011;16424;50.956;5.320;2022-10-16T16:55:17;8.45;;;3.67;;
29452;SDS011;16424;50.956;5.320;2022-10-16T16:57:43;6.55;;;3.30;;
29452;SDS011;16424;50.956;5.320;2022-10-16T17:00:09;6.15;;;3.65;;
29452;SDS011;16424;50.956;5.320;2022-10-16T17:02:35;9.90;;;3.72;;
29452;SDS011;16424;50.956;5.320;2022-10-16T17:05:00;10.05;;;4.47;;
29452;SDS011;16424;50.956;5.320;2022-10-16T17:07:26;7.45;;;3.20;;
29452;SDS011;16424;50.956;5.320;2022-10-16T17:09:57;8.07;;;3.20;;
29452;SDS011;16424;50.956;5.320;2022-10-16T17:12:23;11.80;;;3.90;;
29452;SDS011;16424;50.956;5.320;2022-10-16T17:14:49;9.98;;;4.00;;
29452;SDS011;16424;50.956;5.320;2022-10-16T17:17:15;8.13;;;3.25;;
29452;SDS011;16424;50.956;5.320;2022-10-16T17:19:41;7.43;;;3.70;;
29452;SDS011;16424;50.956;5.320;2022-10-16T17:22:07;9.02;;;4.30;;
29452;SDS011;16424;50.956;5.320;2022-10-16T17:24:32;10.27;;;4.75;;
29452;SDS011;16424;50.956;5.320;2022-10-16T17:26:58;12.77;;;5.03;;
29452;SDS011;16424;50.956;5.320;2022-10-16T17:29:24;17.40;;;6.60;;
29452;SDS011;16424;50.956;5.320;2022-10-16T17:31:49;16.63;;;6.28;;